createdAt,value
2017-06-28T00:02:09.290Z,59.20
2017-06-28T00:04:37.399Z,58.80
2017-06-28T00:07:05.468Z,59.20
2017-06-28T00:09:33.719Z,59.10
2017-06-28T00:12:01.796Z,59.10
2017-06-28T00:14:30.647Z,59.80
2017-06-28T00:16:58.718Z,59.10
2017-06-28T00:19:26.791Z,59.10
2017-06-28T00:21:54.892Z,59.00
2017-06-28T00:24:22.982Z,59.10
2017-06-28T00:26:51.820Z,59.20
2017-06-28T00:29:19.902Z,59.10
2017-06-28T00:31:47.975Z,59.10
2017-06-28T00:34:16.053Z,59.10
2017-06-28T00:36:44.123Z,59.20
2017-06-28T00:39:12.194Z,59.20
2017-06-28T00:41:40.284Z,59.20
2017-06-28T00:44:08.361Z,59.10
2017-06-28T00:46:36.436Z,59.20
2017-06-28T00:49:05.276Z,59.90
2017-06-28T00:51:33.370Z,59.20
2017-06-28T00:54:01.443Z,59.10
2017-06-28T00:56:29.514Z,59.10
2017-06-28T00:58:57.603Z,59.10
2017-06-28T01:01:25.672Z,59.10
2017-06-28T01:03:53.748Z,59.10
2017-06-28T01:06:21.823Z,59.50
2017-06-28T01:08:49.904Z,59.50
2017-06-28T01:11:17.999Z,59.40
2017-06-28T01:13:46.076Z,59.70
2017-06-28T01:16:14.147Z,59.60
2017-06-28T01:18:42.231Z,59.90
2017-06-28T01:21:10.297Z,59.90
2017-06-28T01:23:38.419Z,59.80
2017-06-28T01:26:06.555Z,60.30
2017-06-28T01:28:34.612Z,60.20
2017-06-28T01:31:02.688Z,60.50
2017-06-28T01:33:30.751Z,60.50
2017-06-28T01:35:58.826Z,60.80
2017-06-28T01:38:26.905Z,61.20
2017-06-28T01:40:54.971Z,61.10
2017-06-28T01:43:23.052Z,61.70
2017-06-28T01:45:51.116Z,61.30
2017-06-28T01:48:19.191Z,62.20
2017-06-28T01:50:47.256Z,62.80
2017-06-28T01:53:15.372Z,62.80
2017-06-28T01:55:43.428Z,62.70
2017-06-28T01:58:11.503Z,62.70
2017-06-28T02:00:39.625Z,63.00
2017-06-28T02:03:07.703Z,63.00
2017-06-28T02:05:35.782Z,63.40
2017-06-28T02:08:04.616Z,64.20
2017-06-28T02:10:32.687Z,64.00
2017-06-28T02:13:00.770Z,63.90
2017-06-28T02:15:28.851Z,63.90
2017-06-28T02:17:56.940Z,64.00
2017-06-28T02:20:25.022Z,63.90
2017-06-28T02:22:53.096Z,63.50
2017-06-28T02:25:21.176Z,63.40
2017-06-28T02:27:49.244Z,63.40
2017-06-28T02:30:18.091Z,63.30
2017-06-28T02:32:46.931Z,63.20
2017-06-28T02:35:15.786Z,63.90
2017-06-28T02:37:43.864Z,63.10
2017-06-28T02:40:11.927Z,63.00
2017-06-28T02:42:40.002Z,63.10
2017-06-28T02:45:08.075Z,62.90
2017-06-28T02:47:36.151Z,62.60
2017-06-28T02:50:04.218Z,62.70
2017-06-28T02:52:32.358Z,62.90
2017-06-28T02:55:00.495Z,62.90
2017-06-28T02:57:28.571Z,62.80
2017-06-28T02:59:56.642Z,62.70
2017-06-28T03:02:25.508Z,63.10
2017-06-28T03:04:53.580Z,62.90
2017-06-28T03:07:26.534Z,62.80
2017-06-28T03:09:54.594Z,62.90
2017-06-28T03:12:22.667Z,62.80
2017-06-28T03:14:50.763Z,62.80
2017-06-28T03:17:18.840Z,62.80
2017-06-28T03:19:46.930Z,62.10
2017-06-28T03:22:15.007Z,63.10
2017-06-28T03:24:43.091Z,62.70
2017-06-28T03:27:11.164Z,63.20
2017-06-28T03:29:39.260Z,63.20
2017-06-28T03:32:07.550Z,63.50
2017-06-28T03:34:35.616Z,63.40
2017-06-28T03:37:03.686Z,63.50
2017-06-28T03:39:31.747Z,63.10
2017-06-28T03:42:00.641Z,64.00
2017-06-28T03:44:29.487Z,63.70
2017-06-28T03:46:57.583Z,63.60
2017-06-28T03:49:25.658Z,63.80
2017-06-28T03:51:53.759Z,63.90
2017-06-28T03:54:21.833Z,63.90
2017-06-28T03:56:49.955Z,63.80
2017-06-28T03:59:18.044Z,63.90
2017-06-28T04:01:46.116Z,64.50
2017-06-28T04:04:14.734Z,65.10
2017-06-28T04:06:42.807Z,65.10
2017-06-28T04:09:10.879Z,64.90
2017-06-28T04:11:38.959Z,64.70
2017-06-28T04:14:07.049Z,64.20
2017-06-28T04:16:35.143Z,65.10
2017-06-28T04:19:03.241Z,64.70
2017-06-28T04:21:31.315Z,64.40
2017-06-28T04:23:59.387Z,64.10
2017-06-28T04:26:27.463Z,64.00
2017-06-28T04:28:56.310Z,63.30
2017-06-28T04:31:24.400Z,63.30
2017-06-28T04:33:52.466Z,63.60
2017-06-28T04:36:20.555Z,63.50
2017-06-28T04:38:48.631Z,62.90
2017-06-28T04:41:16.712Z,63.20
2017-06-28T04:43:44.790Z,63.20
2017-06-28T04:46:12.888Z,63.90
2017-06-28T04:48:40.959Z,63.90
2017-06-28T04:51:09.026Z,64.20
2017-06-28T04:53:37.108Z,64.10
2017-06-28T04:56:05.177Z,65.40
2017-06-28T04:58:33.298Z,65.50
2017-06-28T05:01:01.379Z,65.60
2017-06-28T05:03:29.469Z,65.50
2017-06-28T05:05:58.311Z,64.70
2017-06-28T05:08:26.415Z,64.70
2017-06-28T05:10:54.703Z,64.10
2017-06-28T05:13:22.780Z,63.90
2017-06-28T05:15:50.855Z,64.20
2017-06-28T05:18:18.940Z,63.70
2017-06-28T05:20:47.914Z,64.10
2017-06-28T05:23:16.781Z,64.20
2017-06-28T05:25:44.871Z,63.50
2017-06-28T05:28:13.020Z,62.90
2017-06-28T05:30:41.111Z,63.40
2017-06-28T05:33:09.188Z,64.50
2017-06-28T05:35:37.271Z,64.40
2017-06-28T05:38:05.351Z,63.40
2017-06-28T05:40:34.199Z,63.80
2017-06-28T05:43:02.296Z,63.70
2017-06-28T05:45:30.380Z,63.90
2017-06-28T05:47:59.235Z,64.90
2017-06-28T05:50:27.314Z,64.90
2017-06-28T05:52:55.409Z,64.00
2017-06-28T05:55:23.487Z,63.90
2017-06-28T05:57:51.660Z,63.40
2017-06-28T06:00:19.730Z,64.40
2017-06-28T06:02:47.810Z,64.00
2017-06-28T06:05:16.656Z,63.20
2017-06-28T06:07:44.731Z,62.50
2017-06-28T06:10:12.822Z,62.30
2017-06-28T06:12:40.887Z,62.20
2017-06-28T06:15:09.015Z,62.30
2017-06-28T06:17:37.076Z,62.30
2017-06-28T06:20:05.155Z,62.60
2017-06-28T06:22:33.233Z,62.60
2017-06-28T06:25:01.451Z,62.70
2017-06-28T06:27:29.536Z,62.70
2017-06-28T06:29:57.619Z,62.60
2017-06-28T06:32:25.704Z,63.00
2017-06-28T06:34:54.540Z,63.80
2017-06-28T06:37:23.399Z,63.80
2017-06-28T06:39:51.471Z,64.50
2017-06-28T06:42:19.548Z,63.20
2017-06-28T06:44:47.625Z,63.60
2017-06-28T06:47:15.732Z,63.40
2017-06-28T06:49:43.799Z,64.20
2017-06-28T06:52:11.863Z,63.70
2017-06-28T06:54:39.948Z,63.80
2017-06-28T06:57:08.030Z,64.50
2017-06-28T06:59:36.115Z,65.50
2017-06-28T07:02:04.192Z,66.70
2017-06-28T07:04:32.271Z,67.10
2017-06-28T07:07:00.342Z,67.70
2017-06-28T07:09:28.432Z,68.00
2017-06-28T07:11:57.303Z,68.50
2017-06-28T07:14:25.385Z,68.40
2017-06-28T07:16:53.468Z,69.10
2017-06-28T07:19:21.563Z,69.60
2017-06-28T07:21:49.649Z,71.90
2017-06-28T07:24:17.749Z,72.10
2017-06-28T07:26:45.840Z,72.00
2017-06-28T07:29:13.991Z,72.20
2017-06-28T07:31:42.084Z,72.50
2017-06-28T07:34:10.175Z,72.70
2017-06-28T07:36:38.260Z,72.20
2017-06-28T07:39:06.332Z,72.30
2017-06-28T07:41:34.431Z,71.80
2017-06-28T07:44:02.504Z,71.80
2017-06-28T07:46:30.576Z,71.50
2017-06-28T07:48:58.664Z,71.30
2017-06-28T07:51:26.730Z,71.40
2017-06-28T07:53:55.585Z,71.80
2017-06-28T07:56:23.663Z,71.70
2017-06-28T07:58:51.760Z,71.10
2017-06-28T08:01:19.832Z,71.50
2017-06-28T08:03:48.011Z,70.20
2017-06-28T08:06:16.083Z,70.20
2017-06-28T08:08:44.197Z,69.80
2017-06-28T08:11:12.277Z,70.80
2017-06-28T08:13:41.134Z,72.20
2017-06-28T08:16:09.216Z,71.40
2017-06-28T08:18:37.309Z,71.20
2017-06-28T08:21:05.383Z,71.10
2017-06-28T08:23:33.454Z,71.50
2017-06-28T08:26:02.315Z,71.70
2017-06-28T08:28:30.396Z,71.70
2017-06-28T08:30:58.490Z,71.90
2017-06-28T08:33:27.335Z,72.40
2017-06-28T08:35:55.428Z,71.90
2017-06-28T08:38:23.500Z,72.40
2017-06-28T08:40:51.577Z,72.00
2017-06-28T08:43:19.721Z,72.20
2017-06-28T08:45:47.896Z,72.20
2017-06-28T08:48:15.972Z,72.20
2017-06-28T08:50:44.040Z,72.20
2017-06-28T08:53:12.114Z,72.60
2017-06-28T08:55:40.191Z,73.20
2017-06-28T08:58:09.039Z,72.40
2017-06-28T09:00:37.890Z,72.30
2017-06-28T09:03:05.976Z,72.30
2017-06-28T09:05:34.047Z,72.50
2017-06-28T09:08:02.124Z,72.70
2017-06-28T09:10:30.209Z,71.70
2017-06-28T09:12:58.288Z,70.90
2017-06-28T09:15:27.139Z,71.00
2017-06-28T09:17:55.225Z,71.00
2017-06-28T09:20:23.339Z,70.90
2017-06-28T09:22:51.409Z,70.10
2017-06-28T09:25:19.482Z,68.60
2017-06-28T09:27:47.560Z,69.20
2017-06-28T09:30:15.636Z,69.80
2017-06-28T09:32:43.723Z,68.80
2017-06-28T09:35:11.789Z,68.80
2017-06-28T09:37:39.875Z,68.90
2017-06-28T09:40:07.963Z,68.20
2017-06-28T09:42:36.043Z,68.20
2017-06-28T09:45:04.146Z,67.30
2017-06-28T09:47:32.995Z,67.40
2017-06-28T09:50:01.074Z,67.40
2017-06-28T09:52:29.155Z,67.40
2017-06-28T09:54:57.220Z,67.30
2017-06-28T09:57:25.288Z,66.80
2017-06-28T09:59:53.364Z,67.50
2017-06-28T10:02:21.431Z,66.50
2017-06-28T10:04:49.503Z,66.30
2017-06-28T10:07:17.579Z,66.30
2017-06-28T10:09:45.647Z,66.00
2017-06-28T10:12:13.720Z,66.10
2017-06-28T10:14:41.795Z,65.80
2017-06-28T10:17:09.867Z,65.80
2017-06-28T10:19:38.017Z,65.40
2017-06-28T10:22:06.094Z,65.10
2017-06-28T10:24:34.163Z,64.70
2017-06-28T10:27:02.235Z,65.20
2017-06-28T10:29:30.307Z,64.70
2017-06-28T10:31:58.384Z,65.30
2017-06-28T10:34:26.480Z,64.90
2017-06-28T10:36:54.558Z,64.40
2017-06-28T10:39:22.635Z,63.70
2017-06-28T10:41:50.706Z,63.40
2017-06-28T10:44:18.779Z,62.40
2017-06-28T10:46:46.863Z,62.20
2017-06-28T10:49:14.927Z,61.30
2017-06-28T10:51:43.000Z,61.30
2017-06-28T10:54:11.088Z,61.30
2017-06-28T10:56:39.924Z,61.40
2017-06-28T10:59:08.009Z,61.40
2017-06-28T11:01:36.066Z,61.10
2017-06-28T11:04:04.151Z,61.40
2017-06-28T11:06:32.211Z,61.40
2017-06-28T11:09:00.287Z,61.40
2017-06-28T11:11:28.355Z,61.40
2017-06-28T11:13:56.601Z,61.40
2017-06-28T11:16:25.437Z,61.50
2017-06-28T11:18:53.502Z,61.50
2017-06-28T11:21:21.591Z,61.60
2017-06-28T11:23:49.659Z,61.30
2017-06-28T11:26:17.779Z,61.30
2017-06-28T11:28:46.615Z,60.60
2017-06-28T11:31:14.724Z,60.60
2017-06-28T11:33:42.807Z,59.80
2017-06-28T11:36:11.676Z,59.70
2017-06-28T11:38:39.744Z,59.50
2017-06-28T11:41:07.820Z,59.30
2017-06-28T11:43:35.892Z,60.20
2017-06-28T11:46:03.976Z,59.60
2017-06-28T11:48:32.043Z,59.60
2017-06-28T11:51:00.109Z,59.40
2017-06-28T11:53:28.515Z,60.10
2017-06-28T11:55:57.343Z,60.10
2017-06-28T11:58:25.417Z,60.10
2017-06-28T12:00:53.493Z,60.20
2017-06-28T12:03:21.567Z,59.80
2017-06-28T12:05:49.643Z,58.70
2017-06-28T12:08:17.728Z,58.70
2017-06-28T12:10:45.799Z,58.00
2017-06-28T12:13:13.883Z,57.30
2017-06-28T12:15:41.958Z,57.00
2017-06-28T12:18:10.031Z,56.70
2017-06-28T12:20:38.104Z,57.00
2017-06-28T12:23:06.170Z,56.80
2017-06-28T12:25:34.247Z,56.40
2017-06-28T12:28:02.314Z,55.50
2017-06-28T12:30:30.391Z,55.50
2017-06-28T12:32:58.476Z,55.90
2017-06-28T12:35:26.542Z,56.10
2017-06-28T12:37:54.613Z,55.90
2017-06-28T12:40:22.698Z,54.40
2017-06-28T12:42:51.531Z,54.60
2017-06-28T12:45:19.620Z,54.50
2017-06-28T12:47:47.717Z,54.60
2017-06-28T12:50:15.791Z,54.50
2017-06-28T12:52:43.876Z,53.70
2017-06-28T12:55:12.718Z,51.10
2017-06-28T12:57:40.791Z,51.50
2017-06-28T13:00:08.868Z,51.60
2017-06-28T13:02:36.944Z,50.50
2017-06-28T13:05:05.021Z,49.20
2017-06-28T13:07:33.115Z,50.70
2017-06-28T13:10:01.967Z,53.30
2017-06-28T13:12:30.038Z,53.30
2017-06-28T13:14:58.128Z,53.00
2017-06-28T13:17:26.207Z,55.10
2017-06-28T13:19:54.291Z,55.70
2017-06-28T13:22:23.155Z,55.80
2017-06-28T13:24:51.230Z,55.90
2017-06-28T13:27:19.304Z,56.20
2017-06-28T13:29:47.398Z,56.00
2017-06-28T13:32:15.475Z,55.70
2017-06-28T13:34:43.544Z,55.10
2017-06-28T13:37:11.641Z,56.10
2017-06-28T13:39:40.493Z,56.60
2017-06-28T13:42:08.567Z,56.20
2017-06-28T13:44:36.639Z,57.30
2017-06-28T13:47:04.706Z,56.60
2017-06-28T13:49:32.789Z,56.70
2017-06-28T13:52:00.883Z,57.40
2017-06-28T13:54:28.956Z,56.70
2017-06-28T13:56:57.014Z,56.90
2017-06-28T13:59:25.099Z,56.90
2017-06-28T14:01:53.941Z,56.90
2017-06-28T14:04:22.021Z,56.10
2017-06-28T14:06:50.087Z,55.90
2017-06-28T14:09:18.158Z,56.00
2017-06-28T14:11:46.231Z,54.90
2017-06-28T14:14:14.635Z,53.60
2017-06-28T14:16:42.699Z,53.80
2017-06-28T14:19:10.807Z,54.30
2017-06-28T14:21:38.876Z,52.60
2017-06-28T14:24:07.716Z,50.60
2017-06-28T14:26:35.794Z,50.60
2017-06-28T14:29:03.866Z,50.80
2017-06-28T14:31:31.938Z,50.90
2017-06-28T14:34:00.770Z,49.50
2017-06-28T14:36:28.849Z,49.40
2017-06-28T14:38:57.687Z,50.40
2017-06-28T14:41:25.765Z,50.30
2017-06-28T14:43:53.843Z,49.50
2017-06-28T14:46:21.912Z,49.50
2017-06-28T14:48:49.992Z,49.00
2017-06-28T14:51:18.148Z,47.80
2017-06-28T14:53:46.218Z,48.10
2017-06-28T14:56:14.290Z,49.00
2017-06-28T14:58:42.370Z,49.20
2017-06-28T15:01:10.439Z,48.20
2017-06-28T15:03:38.542Z,48.70
2017-06-28T15:06:06.620Z,48.80
2017-06-28T15:08:34.703Z,48.80
2017-06-28T15:11:02.775Z,48.90
2017-06-28T15:13:30.838Z,48.90
2017-06-28T15:15:58.918Z,48.90
2017-06-28T15:18:26.982Z,48.80
2017-06-28T15:20:55.055Z,48.50
2017-06-28T15:23:23.135Z,48.00
2017-06-28T15:25:51.211Z,48.20
2017-06-28T15:28:19.339Z,48.60
2017-06-28T15:30:47.442Z,48.50
2017-06-28T15:33:15.510Z,48.60
2017-06-28T15:35:43.575Z,49.10
2017-06-28T15:38:11.667Z,49.10
2017-06-28T15:40:39.731Z,48.90
2017-06-28T15:43:07.841Z,48.80
2017-06-28T15:45:35.907Z,49.10
2017-06-28T15:48:04.752Z,49.10
2017-06-28T15:50:32.833Z,49.10
2017-06-28T15:53:00.912Z,48.60
2017-06-28T15:55:28.982Z,48.80
2017-06-28T15:57:57.076Z,48.50
2017-06-28T16:00:25.921Z,49.30
2017-06-28T16:02:53.997Z,49.10
2017-06-28T16:05:22.073Z,48.30
2017-06-28T16:07:50.145Z,48.90
2017-06-28T16:10:18.228Z,49.00
2017-06-28T16:12:46.304Z,49.40
2017-06-28T16:15:14.394Z,49.30
2017-06-28T16:17:42.463Z,49.30
2017-06-28T16:20:10.554Z,49.20
2017-06-28T16:22:39.493Z,48.70
2017-06-28T16:25:07.640Z,48.50
2017-06-28T16:27:35.776Z,48.70
2017-06-28T16:30:03.849Z,48.80
2017-06-28T16:32:31.915Z,48.70
2017-06-28T16:35:00.051Z,48.50
2017-06-28T16:37:28.198Z,48.40
2017-06-28T16:39:57.027Z,47.80
2017-06-28T16:42:25.123Z,47.70
2017-06-28T16:44:53.200Z,47.80
2017-06-28T16:47:21.267Z,47.00
2017-06-28T16:49:49.399Z,47.00
2017-06-28T16:52:17.524Z,47.30
2017-06-28T16:54:45.599Z,47.60
2017-06-28T16:57:13.659Z,47.20
2017-06-28T16:59:41.756Z,47.50
2017-06-28T17:02:09.904Z,47.50
2017-06-28T17:04:37.975Z,46.90
2017-06-28T17:07:06.105Z,46.60
2017-06-28T17:09:34.238Z,46.80
2017-06-28T17:12:03.082Z,48.00
2017-06-28T17:14:31.147Z,47.30
2017-06-28T17:16:59.225Z,47.90
2017-06-28T17:19:27.317Z,48.10
2017-06-28T17:21:55.415Z,48.50
2017-06-28T17:24:23.564Z,48.50
2017-06-28T17:26:51.627Z,48.50
2017-06-28T17:29:19.708Z,48.00
2017-06-28T17:31:47.781Z,48.50
2017-06-28T17:34:15.905Z,48.40
2017-06-28T17:36:43.964Z,48.00
2017-06-28T17:39:12.836Z,48.20
2017-06-28T17:41:40.908Z,48.80
2017-06-28T17:44:09.047Z,48.80
2017-06-28T17:46:37.185Z,48.90
2017-06-28T17:49:05.246Z,48.70
2017-06-28T17:51:34.128Z,48.70
2017-06-28T17:54:02.252Z,49.00
2017-06-28T17:56:30.322Z,49.20
2017-06-28T17:58:58.399Z,49.10
2017-06-28T18:01:26.509Z,49.10
2017-06-28T18:03:54.600Z,49.10
2017-06-28T18:06:22.670Z,49.00
2017-06-28T18:08:51.527Z,49.40
2017-06-28T18:11:19.665Z,49.40
2017-06-28T18:13:47.743Z,50.10
2017-06-28T18:16:15.821Z,49.50
2017-06-28T18:18:43.894Z,49.70
2017-06-28T18:21:11.968Z,49.90
2017-06-28T18:23:40.065Z,50.20
2017-06-28T18:26:08.156Z,50.10
2017-06-28T18:28:36.238Z,50.40
2017-06-28T18:31:04.307Z,50.50
2017-06-28T18:33:32.374Z,50.50
2017-06-28T18:36:00.463Z,50.50
2017-06-28T18:38:28.547Z,50.30
2017-06-28T18:40:56.631Z,50.70
2017-06-28T18:43:24.712Z,50.00
2017-06-28T18:45:52.831Z,50.20
2017-06-28T18:48:20.967Z,50.40
2017-06-28T18:50:49.033Z,50.80
2017-06-28T18:53:17.163Z,50.70
2017-06-28T18:55:46.077Z,51.10
2017-06-28T18:58:15.515Z,51.30
2017-06-28T19:00:43.615Z,51.10
2017-06-28T19:03:11.745Z,51.90
2017-06-28T19:05:39.826Z,51.20
2017-06-28T19:08:07.926Z,51.20
2017-06-28T19:10:36.059Z,51.30
2017-06-28T19:13:04.119Z,51.50
2017-06-28T19:15:32.251Z,51.50
2017-06-28T19:18:00.343Z,51.60
2017-06-28T19:20:28.714Z,51.90
2017-06-28T19:22:56.783Z,51.90
2017-06-28T19:25:24.862Z,52.00
2017-06-28T19:27:52.935Z,51.70
2017-06-28T19:30:21.075Z,52.20
2017-06-28T19:32:49.154Z,52.50
2017-06-28T19:35:17.256Z,52.70
2017-06-28T19:37:45.326Z,52.60
2017-06-28T19:40:13.391Z,52.70
2017-06-28T19:42:41.471Z,52.70
2017-06-28T19:45:09.598Z,52.70
2017-06-28T19:47:37.724Z,53.60
2017-06-28T19:50:05.779Z,53.80
2017-06-28T19:52:33.870Z,54.00
2017-06-28T19:55:02.718Z,54.70
2017-06-28T19:57:30.808Z,54.70
2017-06-28T19:59:58.915Z,54.70
2017-06-28T20:02:26.991Z,54.80
2017-06-28T20:04:55.067Z,54.80
2017-06-28T20:07:23.132Z,54.80
2017-06-28T20:09:51.983Z,54.80
2017-06-28T20:12:20.053Z,54.70
2017-06-28T20:14:48.124Z,54.80
2017-06-28T20:17:16.195Z,54.90
2017-06-28T20:19:44.288Z,55.10
2017-06-28T20:22:12.343Z,55.60
2017-06-28T20:24:40.431Z,55.40
2017-06-28T20:27:08.534Z,55.50
2017-06-28T20:29:36.594Z,55.70
2017-06-28T20:32:05.447Z,57.30
2017-06-28T20:34:33.527Z,56.50
2017-06-28T20:37:01.597Z,56.90
2017-06-28T20:39:29.659Z,57.00
2017-06-28T20:41:57.737Z,56.60
2017-06-28T20:44:25.803Z,56.80
2017-06-28T20:46:53.874Z,57.10
2017-06-28T20:49:21.963Z,56.90
2017-06-28T20:51:50.719Z,56.80
2017-06-28T20:54:18.766Z,57.10
2017-06-28T20:56:46.851Z,57.00
2017-06-28T20:59:14.915Z,57.20
2017-06-28T21:01:43.351Z,57.40
2017-06-28T21:04:11.431Z,57.50
2017-06-28T21:06:39.975Z,57.70
2017-06-28T21:09:08.059Z,57.70
2017-06-28T21:11:36.223Z,58.10
2017-06-28T21:14:04.295Z,58.40
2017-06-28T21:16:32.367Z,58.30
2017-06-28T21:19:00.442Z,58.50
2017-06-28T21:21:28.512Z,58.80
2017-06-28T21:23:56.606Z,59.20
2017-06-28T21:26:24.684Z,60.10
2017-06-28T21:28:52.739Z,60.10
2017-06-28T21:31:20.838Z,60.00
2017-06-28T21:33:48.915Z,60.00
2017-06-28T21:36:16.983Z,60.10
2017-06-28T21:38:45.055Z,60.00
2017-06-28T21:41:13.127Z,60.10
2017-06-28T21:43:41.521Z,60.10
2017-06-28T21:46:09.593Z,60.00
2017-06-28T21:48:37.656Z,60.00
2017-06-28T21:51:05.746Z,59.90
2017-06-28T21:53:33.821Z,59.90
2017-06-28T21:56:02.657Z,59.90
2017-06-28T21:58:30.723Z,59.80
2017-06-28T22:00:58.791Z,59.80
2017-06-28T22:03:26.867Z,59.90
2017-06-28T22:05:54.942Z,60.00
2017-06-28T22:08:23.488Z,60.10
2017-06-28T22:10:51.563Z,60.40
2017-06-28T22:13:20.435Z,60.80
2017-06-28T22:15:48.506Z,60.80
2017-06-28T22:18:16.568Z,60.60
2017-06-28T22:20:44.703Z,61.80
2017-06-28T22:23:12.781Z,62.20
2017-06-28T22:25:41.196Z,62.60
2017-06-28T22:28:09.263Z,62.80
2017-06-28T22:30:37.338Z,64.40
2017-06-28T22:33:05.412Z,65.00
2017-06-28T22:35:33.507Z,64.40
2017-06-28T22:38:02.334Z,65.70
2017-06-28T22:40:30.432Z,65.60
2017-06-28T22:42:58.512Z,66.70
2017-06-28T22:45:26.628Z,67.70
2017-06-28T22:47:54.694Z,67.60
2017-06-28T22:50:23.967Z,68.00
2017-06-28T22:52:52.047Z,67.90
2017-06-28T22:55:20.116Z,68.60
2017-06-28T22:57:48.188Z,69.30
2017-06-28T23:00:16.260Z,69.50
2017-06-28T23:02:44.346Z,70.40
2017-06-28T23:05:13.187Z,70.30
2017-06-28T23:07:42.019Z,70.90
2017-06-28T23:10:10.091Z,70.90
2017-06-28T23:12:38.153Z,70.70
2017-06-28T23:15:06.636Z,70.50
2017-06-28T23:17:34.708Z,70.80
2017-06-28T23:20:02.778Z,70.20
2017-06-28T23:22:30.851Z,69.60
2017-06-28T23:24:58.931Z,69.60
2017-06-28T23:27:26.999Z,69.20
2017-06-28T23:29:55.063Z,69.10
2017-06-28T23:32:23.141Z,70.60
2017-06-28T23:34:51.203Z,70.40
2017-06-28T23:37:19.283Z,70.10
2017-06-28T23:39:47.854Z,71.10
2017-06-28T23:42:16.056Z,70.60
2017-06-28T23:44:44.126Z,70.40
2017-06-28T23:47:12.203Z,70.40
2017-06-28T23:49:41.037Z,71.40
2017-06-28T23:52:09.117Z,71.30
2017-06-28T23:54:37.207Z,70.50
2017-06-28T23:57:05.276Z,70.50
2017-06-28T23:59:33.372Z,70.40
